Terminal Aerodrome Forecast
Issued by NWS

Current Version | Previous Version | Text Only | Print | Product List | Glossary On
Versions: 1 2 3 4 5 6 7 8 9 10 11 12 13 14 15 16 17 18 19 20 21 22 23 24 25 26 27
000
FTUS42 KTAE 161700
TAFDHN
TAF
KDHN 161723Z 1618/1718 30007KT P6SM VCTS SCT020CB BKN023
      TEMPO 1618/1622 3SM TSRA OVC030CB
     FM170200 36005KT P6SM SCT100 BKN250
     FM171100 35003KT 4SM BR SCT250
     FM171400 35005KT P6SM SCT250=

USA.gov is the U.S. government's official web portal to all federal, state and local government web resources and services.